createdAt,value
2023-01-30T00:00:10.589Z,2.82
2023-01-30T00:01:10.500Z,2.82
2023-01-30T00:02:10.549Z,2.81
2023-01-30T00:03:10.504Z,2.84
2023-01-30T00:04:10.517Z,2.84
2023-01-30T00:05:10.544Z,2.84
2023-01-30T00:06:10.509Z,2.87
2023-01-30T00:07:10.499Z,2.88
2023-01-30T00:08:10.656Z,2.9
2023-01-30T00:09:10.497Z,2.91
2023-01-30T00:10:10.498Z,2.91
2023-01-30T00:11:10.507Z,2.9
2023-01-30T00:12:10.750Z,2.88
2023-01-30T00:13:10.504Z,2.9
2023-01-30T00:14:10.513Z,2.93
2023-01-30T00:15:10.514Z,2.97
2023-01-30T00:16:10.632Z,2.96
2023-01-30T00:17:10.510Z,2.97
2023-01-30T00:18:10.497Z,3
2023-01-30T00:19:10.498Z,3
2023-01-30T00:20:10.497Z,3.01
2023-01-30T00:21:10.503Z,3.01
2023-01-30T00:22:10.499Z,3.01
2023-01-30T00:23:10.512Z,3.01
2023-01-30T00:24:10.586Z,3.01
2023-01-30T00:25:10.595Z,3.02
2023-01-30T00:26:10.543Z,3.05
2023-01-30T00:27:10.501Z,3.04
2023-01-30T00:28:10.501Z,3.06
2023-01-30T00:29:10.504Z,3.05
2023-01-30T00:30:10.502Z,3.07
2023-01-30T00:31:10.525Z,3.08
2023-01-30T00:32:10.507Z,3.09
2023-01-30T00:33:10.507Z,3.08
2023-01-30T00:34:10.510Z,3.07
2023-01-30T00:35:10.506Z,3.09
2023-01-30T00:36:10.513Z,3.09
2023-01-30T00:37:10.504Z,3.1
2023-01-30T00:38:10.508Z,3.13
2023-01-30T00:39:10.509Z,3.15
2023-01-30T00:40:10.504Z,3.17
2023-01-30T00:41:10.504Z,3.18
2023-01-30T00:42:10.501Z,3.16
2023-01-30T00:43:13.679Z,3.16
2023-01-30T00:44:10.505Z,3.16
2023-01-30T00:45:10.508Z,3.19
2023-01-30T00:46:10.587Z,3.21
2023-01-30T00:47:10.501Z,3.23
2023-01-30T00:48:10.502Z,3.2
2023-01-30T00:49:10.505Z,3.21
2023-01-30T00:50:10.498Z,3.21
2023-01-30T00:51:10.519Z,3.22
2023-01-30T00:52:10.509Z,3.21
2023-01-30T00:53:10.508Z,3.21
2023-01-30T00:54:10.513Z,3.22
2023-01-30T00:55:10.507Z,3.21
2023-01-30T00:56:10.513Z,3.2
2023-01-30T00:57:10.612Z,3.19
2023-01-30T00:58:10.505Z,3.2
2023-01-30T00:59:10.512Z,3.21
2023-01-30T01:00:10.510Z,3.22
2023-01-30T01:01:10.503Z,3.21
2023-01-30T01:02:10.512Z,3.21
2023-01-30T01:03:10.544Z,3.22
2023-01-30T01:04:10.572Z,3.22
2023-01-30T01:05:10.527Z,3.24
2023-01-30T01:06:10.514Z,3.23
2023-01-30T01:07:10.515Z,3.24
2023-01-30T01:08:10.505Z,3.26
2023-01-30T01:09:10.522Z,3.24
2023-01-30T01:10:10.552Z,3.24
2023-01-30T01:11:10.690Z,3.24
2023-01-30T01:12:10.508Z,3.22
2023-01-30T01:13:10.665Z,3.22
2023-01-30T01:14:10.520Z,3.21
2023-01-30T01:15:10.506Z,3.21
2023-01-30T01:16:10.573Z,3.21
2023-01-30T01:17:10.501Z,3.23
2023-01-30T01:18:10.511Z,3.25
2023-01-30T01:19:10.510Z,3.27
2023-01-30T01:20:10.510Z,3.26
2023-01-30T01:21:10.497Z,3.28
2023-01-30T01:22:10.684Z,3.29
2023-01-30T01:23:10.573Z,3.31
2023-01-30T01:24:10.813Z,3.32
2023-01-30T01:25:10.674Z,3.3
2023-01-30T01:26:10.812Z,3.32
2023-01-30T01:27:11.031Z,3.33
2023-01-30T01:28:11.323Z,3.32
2023-01-30T01:29:10.685Z,3.33
2023-01-30T01:30:10.512Z,3.34
2023-01-30T01:31:10.645Z,3.34
2023-01-30T01:32:10.605Z,3.37
2023-01-30T01:33:10.510Z,3.36
2023-01-30T01:34:10.516Z,3.35
2023-01-30T01:35:10.506Z,3.37
2023-01-30T01:36:10.678Z,3.39
2023-01-30T01:37:10.524Z,3.4
2023-01-30T01:38:10.584Z,3.42
2023-01-30T01:39:10.512Z,3.43
2023-01-30T01:40:10.499Z,3.44
2023-01-30T01:41:10.503Z,3.45
2023-01-30T01:42:11.514Z,3.45
2023-01-30T01:43:10.502Z,3.47
2023-01-30T01:44:10.506Z,3.48
2023-01-30T01:45:10.524Z,3.49
2023-01-30T01:46:10.583Z,3.49
2023-01-30T01:47:10.507Z,3.51
2023-01-30T01:48:10.499Z,3.49
2023-01-30T01:49:10.511Z,3.49
2023-01-30T01:50:10.522Z,3.51
2023-01-30T01:51:10.618Z,3.5
2023-01-30T01:52:10.512Z,3.54
2023-01-30T01:53:10.515Z,3.54
2023-01-30T01:54:10.508Z,3.56
2023-01-30T01:55:10.536Z,3.56
2023-01-30T01:56:10.533Z,3.6
2023-01-30T01:57:10.540Z,3.6
2023-01-30T01:58:10.515Z,3.65
2023-01-30T01:59:10.530Z,3.65
2023-01-30T02:00:10.516Z,3.68
2023-01-30T02:01:10.561Z,3.69
2023-01-30T02:02:10.537Z,3.71
2023-01-30T02:03:10.508Z,3.73
2023-01-30T02:04:10.510Z,3.75
2023-01-30T02:05:10.505Z,3.73
2023-01-30T02:06:10.604Z,3.75
2023-01-30T02:07:10.513Z,3.73
2023-01-30T02:08:10.500Z,3.76
2023-01-30T02:09:10.503Z,3.74
2023-01-30T02:10:10.528Z,3.76
2023-01-30T02:11:10.504Z,3.75
2023-01-30T02:12:10.495Z,3.75
2023-01-30T02:13:10.533Z,3.76
2023-01-30T02:14:10.508Z,3.78
2023-01-30T02:15:10.510Z,3.78
2023-01-30T02:16:10.525Z,3.8
2023-01-30T02:17:10.609Z,3.78
2023-01-30T02:18:10.614Z,3.8
2023-01-30T02:19:10.497Z,3.8
2023-01-30T02:20:10.506Z,3.83
2023-01-30T02:21:10.501Z,3.83
2023-01-30T02:22:10.507Z,3.82
2023-01-30T02:23:10.507Z,3.83
2023-01-30T02:24:10.543Z,3.84
2023-01-30T02:25:10.514Z,3.84
2023-01-30T02:26:10.504Z,3.83
2023-01-30T02:27:10.509Z,3.81
2023-01-30T02:28:10.507Z,3.81
2023-01-30T02:29:10.511Z,3.83
2023-01-30T02:30:10.508Z,3.81
2023-01-30T02:31:10.662Z,3.8
2023-01-30T02:32:10.503Z,3.8
2023-01-30T02:33:10.507Z,3.81
2023-01-30T02:34:10.505Z,3.8
2023-01-30T02:35:10.501Z,3.81
2023-01-30T02:36:10.515Z,3.84
2023-01-30T02:37:10.513Z,3.84
2023-01-30T02:38:11.075Z,3.87
2023-01-30T02:39:10.904Z,3.89
2023-01-30T02:40:10.218Z,3.92
2023-01-30T02:41:10.576Z,3.9
2023-01-30T02:42:10.778Z,3.94
2023-01-30T02:43:11.031Z,3.97
2023-01-30T02:44:10.506Z,3.98
2023-01-30T02:45:10.598Z,3.99
2023-01-30T02:46:10.570Z,4.04
2023-01-30T02:47:10.504Z,4.06
2023-01-30T02:48:10.508Z,4.09
2023-01-30T02:49:10.503Z,4.12
2023-01-30T02:50:10.501Z,4.13
2023-01-30T02:51:10.508Z,4.14
2023-01-30T02:52:10.528Z,4.17
2023-01-30T02:53:10.503Z,4.18
2023-01-30T02:54:10.527Z,4.21
2023-01-30T02:55:10.506Z,4.19
2023-01-30T02:56:10.634Z,4.2
2023-01-30T02:57:11.092Z,4.21
2023-01-30T02:58:10.630Z,4.23
2023-01-30T02:59:10.500Z,4.26
2023-01-30T03:00:10.543Z,4.27
2023-01-30T03:01:10.838Z,4.26
2023-01-30T03:02:10.676Z,4.27
2023-01-30T03:03:10.523Z,4.29
2023-01-30T03:04:10.520Z,4.32
2023-01-30T03:05:10.624Z,4.33
2023-01-30T03:06:10.501Z,4.33
2023-01-30T03:07:10.505Z,4.32
2023-01-30T03:08:10.712Z,4.32
2023-01-30T03:09:10.890Z,4.32
2023-01-30T03:10:11.169Z,4.33
2023-01-30T03:11:10.523Z,4.36
2023-01-30T03:12:10.762Z,4.4
2023-01-30T03:13:10.647Z,4.43
2023-01-30T03:14:10.508Z,4.44
2023-01-30T03:15:10.517Z,4.45
2023-01-30T03:16:10.554Z,4.46
2023-01-30T03:17:10.507Z,4.46
2023-01-30T03:18:10.504Z,4.45
2023-01-30T03:19:10.507Z,4.47
2023-01-30T03:20:10.510Z,4.48
2023-01-30T03:21:10.499Z,4.46
2023-01-30T03:22:10.520Z,4.47
2023-01-30T03:23:10.511Z,4.47
2023-01-30T03:24:10.602Z,4.48
2023-01-30T03:25:10.520Z,4.49
2023-01-30T03:26:10.566Z,4.48
2023-01-30T03:27:10.512Z,4.46
2023-01-30T03:28:10.511Z,4.47
2023-01-30T03:29:10.502Z,4.48
2023-01-30T03:30:10.512Z,4.48
2023-01-30T03:31:10.590Z,4.5
2023-01-30T03:32:10.511Z,4.49
2023-01-30T03:33:10.503Z,4.47
2023-01-30T03:34:10.510Z,4.47
2023-01-30T03:35:10.523Z,4.47
2023-01-30T03:36:10.498Z,4.47
2023-01-30T03:37:10.501Z,4.47
2023-01-30T03:38:10.526Z,4.44
2023-01-30T03:39:10.623Z,4.49
2023-01-30T03:40:10.554Z,4.49
2023-01-30T03:41:10.508Z,4.5
2023-01-30T03:42:10.506Z,4.49
2023-01-30T03:43:10.705Z,4.48
2023-01-30T03:44:10.504Z,4.48
2023-01-30T03:45:10.563Z,4.53
2023-01-30T03:46:10.558Z,4.54
2023-01-30T03:47:10.499Z,4.55
2023-01-30T03:48:10.505Z,4.53
2023-01-30T03:49:10.506Z,4.54
2023-01-30T03:50:10.547Z,4.54
2023-01-30T03:51:10.518Z,4.52
2023-01-30T03:52:10.507Z,4.52
2023-01-30T03:53:10.507Z,4.5
2023-01-30T03:54:10.501Z,4.5
2023-01-30T03:55:10.509Z,4.48
2023-01-30T03:56:10.524Z,4.47
2023-01-30T03:57:10.509Z,4.45
2023-01-30T03:58:10.509Z,4.46
2023-01-30T03:59:10.495Z,4.45
2023-01-30T04:00:10.500Z,4.42
2023-01-30T04:01:10.568Z,4.4
2023-01-30T04:02:10.542Z,4.4
2023-01-30T04:03:10.504Z,4.4
2023-01-30T04:04:10.506Z,4.39
2023-01-30T04:05:10.521Z,4.37
2023-01-30T04:06:10.503Z,4.33
2023-01-30T04:07:10.511Z,4.34
2023-01-30T04:08:10.510Z,4.34
2023-01-30T04:09:10.507Z,4.37
2023-01-30T04:10:10.516Z,4.37
2023-01-30T04:11:10.515Z,4.35
2023-01-30T04:12:10.503Z,4.35
2023-01-30T04:13:10.498Z,4.32
2023-01-30T04:14:10.491Z,4.34
2023-01-30T04:15:10.502Z,4.34
2023-01-30T04:16:10.504Z,4.32
2023-01-30T04:17:10.509Z,4.32
2023-01-30T04:18:10.518Z,4.33
2023-01-30T04:19:10.512Z,4.34
2023-01-30T04:20:10.507Z,4.34
2023-01-30T04:21:10.532Z,4.35
2023-01-30T04:22:10.511Z,4.37
2023-01-30T04:23:10.507Z,4.34
2023-01-30T04:24:10.507Z,4.32
2023-01-30T04:25:10.529Z,4.34
2023-01-30T04:26:10.535Z,4.35
2023-01-30T04:27:10.494Z,4.34
2023-01-30T04:28:10.505Z,4.36
2023-01-30T04:29:10.509Z,4.37
2023-01-30T04:30:10.509Z,4.38
2023-01-30T04:31:10.517Z,4.39
2023-01-30T04:32:10.509Z,4.4
2023-01-30T04:33:10.590Z,4.4
2023-01-30T04:34:10.508Z,4.38
2023-01-30T04:35:10.496Z,4.39
2023-01-30T04:36:10.499Z,4.37
2023-01-30T04:37:10.515Z,4.37
2023-01-30T04:38:10.498Z,4.36
2023-01-30T04:39:10.502Z,4.38
2023-01-30T04:40:10.506Z,4.38
2023-01-30T04:41:10.502Z,4.38
2023-01-30T04:42:10.513Z,4.38
2023-01-30T04:43:10.503Z,4.37
2023-01-30T04:44:10.508Z,4.34
2023-01-30T04:45:10.515Z,4.33
2023-01-30T04:46:10.507Z,4.33
2023-01-30T04:47:10.511Z,4.35
2023-01-30T04:48:10.602Z,4.37
2023-01-30T04:49:10.510Z,4.38
2023-01-30T04:50:10.525Z,4.4
2023-01-30T04:51:10.512Z,4.41
2023-01-30T04:52:10.527Z,4.4
2023-01-30T04:53:10.509Z,4.39
2023-01-30T04:54:10.626Z,4.38
2023-01-30T04:55:10.892Z,4.39
2023-01-30T04:56:10.724Z,4.41
2023-01-30T04:57:10.858Z,4.4
2023-01-30T04:58:10.759Z,4.41
2023-01-30T04:59:10.778Z,4.4
2023-01-30T05:00:12.382Z,4.4
2023-01-30T05:01:11.725Z,4.41
2023-01-30T05:02:10.612Z,4.41
2023-01-30T05:03:10.516Z,4.41
2023-01-30T05:04:10.521Z,4.43
2023-01-30T05:05:10.504Z,4.45
2023-01-30T05:06:10.510Z,4.44
2023-01-30T05:07:10.510Z,4.47
2023-01-30T05:08:10.515Z,4.49
2023-01-30T05:09:10.520Z,4.49
2023-01-30T05:10:10.507Z,4.51
2023-01-30T05:11:10.531Z,4.54
2023-01-30T05:12:10.504Z,4.55
2023-01-30T05:13:10.507Z,4.56
2023-01-30T05:14:10.516Z,4.56
2023-01-30T05:15:10.524Z,4.55
2023-01-30T05:16:10.503Z,4.57
2023-01-30T05:17:10.533Z,4.58
2023-01-30T05:18:10.596Z,4.56
2023-01-30T05:19:10.502Z,4.57
2023-01-30T05:20:10.514Z,4.58
2023-01-30T05:21:10.503Z,4.56
2023-01-30T05:22:10.511Z,4.59
2023-01-30T05:23:10.531Z,4.58
2023-01-30T05:24:10.570Z,4.58
2023-01-30T05:25:10.504Z,4.61
2023-01-30T05:26:10.516Z,4.62
2023-01-30T05:27:10.506Z,4.62
2023-01-30T05:28:10.512Z,4.63
2023-01-30T05:29:10.515Z,4.62
2023-01-30T05:30:10.502Z,4.63
2023-01-30T05:31:10.604Z,4.65
2023-01-30T05:32:10.502Z,4.66
2023-01-30T05:33:10.502Z,4.64
2023-01-30T05:34:10.503Z,4.65
2023-01-30T05:35:10.661Z,4.65
2023-01-30T05:36:10.499Z,4.67
2023-01-30T05:37:10.513Z,4.66
2023-01-30T05:38:10.503Z,4.68
2023-01-30T05:39:10.500Z,4.68
2023-01-30T05:40:10.564Z,4.69
2023-01-30T05:41:10.512Z,4.68
2023-01-30T05:42:10.501Z,4.68
2023-01-30T05:43:10.667Z,4.71
2023-01-30T05:44:13.513Z,4.73
2023-01-30T05:45:10.504Z,4.76
2023-01-30T05:46:10.501Z,4.78
2023-01-30T05:47:10.504Z,4.79
2023-01-30T05:48:10.497Z,4.8
2023-01-30T05:49:10.501Z,4.8
2023-01-30T05:50:10.517Z,4.81
2023-01-30T05:51:10.500Z,4.81
2023-01-30T05:52:19.515Z,4.82
2023-01-30T05:53:10.514Z,4.86
2023-01-30T05:54:10.507Z,4.85
2023-01-30T05:55:10.696Z,4.87
2023-01-30T05:56:10.645Z,4.9
2023-01-30T05:57:11.006Z,4.88
2023-01-30T05:58:10.943Z,4.86
2023-01-30T05:59:10.334Z,4.87
2023-01-30T06:00:10.580Z,4.88
2023-01-30T06:01:10.926Z,4.89
2023-01-30T06:02:12.134Z,4.91
2023-01-30T06:03:10.512Z,4.9
2023-01-30T06:04:10.543Z,4.89
2023-01-30T06:05:10.499Z,4.89
2023-01-30T06:06:10.503Z,4.88
2023-01-30T06:07:10.510Z,4.9
2023-01-30T06:08:10.955Z,4.9
2023-01-30T06:09:10.525Z,4.92
2023-01-30T06:10:10.500Z,4.93
2023-01-30T06:11:10.507Z,4.9
2023-01-30T06:12:10.499Z,4.9
2023-01-30T06:13:10.500Z,4.9
2023-01-30T06:14:10.552Z,4.92
2023-01-30T06:15:10.512Z,4.92
2023-01-30T06:16:10.518Z,4.91
2023-01-30T06:17:10.541Z,4.93
2023-01-30T06:18:10.506Z,4.93
2023-01-30T06:19:10.536Z,4.94
2023-01-30T06:20:10.505Z,4.94
2023-01-30T06:21:10.500Z,4.95
2023-01-30T06:22:10.530Z,4.95
2023-01-30T06:23:10.507Z,4.95
2023-01-30T06:24:10.649Z,4.94
2023-01-30T06:25:10.525Z,4.97
2023-01-30T06:26:10.536Z,5
2023-01-30T06:27:10.503Z,5.01
2023-01-30T06:28:10.505Z,5.03
2023-01-30T06:29:10.545Z,5.03
2023-01-30T06:30:10.519Z,5.04
2023-01-30T06:31:10.542Z,5.06
2023-01-30T06:32:10.517Z,5.06
2023-01-30T06:33:10.501Z,5.06
2023-01-30T06:34:10.539Z,5.09
2023-01-30T06:35:10.550Z,5.12
2023-01-30T06:36:10.520Z,5.13
2023-01-30T06:37:10.769Z,5.15
2023-01-30T06:38:10.675Z,5.16
2023-01-30T06:39:10.498Z,5.15
2023-01-30T06:40:10.672Z,5.15
2023-01-30T06:41:10.771Z,5.17
2023-01-30T06:42:10.618Z,5.21
2023-01-30T06:43:10.503Z,5.22
2023-01-30T06:44:10.757Z,5.24
2023-01-30T06:45:10.515Z,5.25
2023-01-30T06:46:10.737Z,5.26
2023-01-30T06:47:10.505Z,5.26
2023-01-30T06:48:10.507Z,5.26
2023-01-30T06:49:10.509Z,5.27
2023-01-30T06:50:10.537Z,5.27
2023-01-30T06:51:10.502Z,5.3
2023-01-30T06:52:10.608Z,5.31
2023-01-30T06:53:10.497Z,5.3
2023-01-30T06:54:10.511Z,5.34
2023-01-30T06:55:10.508Z,5.36
2023-01-30T06:56:10.517Z,5.37
2023-01-30T06:57:10.508Z,5.37
2023-01-30T06:58:10.513Z,5.39
2023-01-30T06:59:10.505Z,5.39
2023-01-30T07:00:10.510Z,5.42
2023-01-30T07:01:10.512Z,5.43
2023-01-30T07:02:10.543Z,5.49
2023-01-30T07:03:10.523Z,5.48
2023-01-30T07:04:10.588Z,5.49
2023-01-30T07:05:10.519Z,5.5
2023-01-30T07:06:10.596Z,5.53
2023-01-30T07:07:10.506Z,5.53
2023-01-30T07:08:10.529Z,5.51
2023-01-30T07:09:10.501Z,5.53
2023-01-30T07:10:10.498Z,5.53
2023-01-30T07:11:10.498Z,5.53
2023-01-30T07:12:10.502Z,5.54
2023-01-30T07:13:10.805Z,5.55
2023-01-30T07:14:10.498Z,5.55
2023-01-30T07:15:10.508Z,5.57
2023-01-30T07:16:10.602Z,5.57
2023-01-30T07:17:10.794Z,5.55
2023-01-30T07:18:10.516Z,5.57
2023-01-30T07:19:10.515Z,5.57
2023-01-30T07:20:10.507Z,5.57
2023-01-30T07:21:10.517Z,5.56
2023-01-30T07:22:10.584Z,5.58
2023-01-30T07:23:10.509Z,5.62
2023-01-30T07:24:10.732Z,5.63
2023-01-30T07:25:10.615Z,5.65
2023-01-30T07:26:10.717Z,5.7
2023-01-30T07:27:10.932Z,5.71
2023-01-30T07:28:10.820Z,5.72
2023-01-30T07:29:10.697Z,5.73
2023-01-30T07:30:10.917Z,5.77
2023-01-30T07:31:10.809Z,5.8
2023-01-30T07:32:10.704Z,5.81
2023-01-30T07:33:11.002Z,5.81
2023-01-30T07:34:10.765Z,5.84
2023-01-30T07:35:11.137Z,5.88
2023-01-30T07:36:10.661Z,5.9
2023-01-30T07:37:10.512Z,5.92
2023-01-30T07:38:10.510Z,5.92
2023-01-30T07:39:10.516Z,5.92
2023-01-30T07:40:10.526Z,5.91
2023-01-30T07:41:10.501Z,5.94
2023-01-30T07:42:10.522Z,5.95
2023-01-30T07:43:10.500Z,5.96
2023-01-30T07:44:10.536Z,5.98
2023-01-30T07:45:10.515Z,5.99
2023-01-30T07:46:10.504Z,5.99
2023-01-30T07:47:10.556Z,6
2023-01-30T07:48:10.528Z,5.99
2023-01-30T07:49:10.567Z,6.03
2023-01-30T07:50:10.582Z,6.03
2023-01-30T07:51:10.521Z,6.04
2023-01-30T07:52:10.512Z,6.03
2023-01-30T07:53:10.512Z,6.02
2023-01-30T07:54:10.499Z,6
2023-01-30T07:55:10.510Z,6
2023-01-30T07:56:10.511Z,6.01
2023-01-30T07:57:10.509Z,6.01
2023-01-30T07:58:10.524Z,6.01
2023-01-30T07:59:10.507Z,6.01
2023-01-30T08:00:10.505Z,6.02
2023-01-30T08:01:10.556Z,6.01
2023-01-30T08:02:10.498Z,5.98
2023-01-30T08:03:10.504Z,5.91
2023-01-30T08:04:10.507Z,5.89
2023-01-30T08:05:10.529Z,5.91
2023-01-30T08:06:10.521Z,5.9
2023-01-30T08:07:10.504Z,5.88
2023-01-30T08:08:10.537Z,5.86
2023-01-30T08:09:10.517Z,5.85
2023-01-30T08:10:13.509Z,5.83
2023-01-30T08:11:10.529Z,5.82
2023-01-30T08:12:10.524Z,5.81
2023-01-30T08:13:10.506Z,5.79
2023-01-30T08:14:10.510Z,5.78
2023-01-30T08:15:10.514Z,5.78
2023-01-30T08:16:10.544Z,5.8
2023-01-30T08:17:10.503Z,5.79
2023-01-30T08:18:10.510Z,5.83
2023-01-30T08:19:10.524Z,5.86
2023-01-30T08:20:10.508Z,5.87
2023-01-30T08:21:10.512Z,5.85
2023-01-30T08:22:10.518Z,5.86
2023-01-30T08:23:10.508Z,5.87
2023-01-30T08:24:10.511Z,5.86
2023-01-30T08:25:10.507Z,5.81
2023-01-30T08:26:10.577Z,5.77
2023-01-30T08:27:10.512Z,5.81
2023-01-30T08:28:10.519Z,5.7
2023-01-30T08:29:10.502Z,5.55
2023-01-30T08:30:10.510Z,5.44
2023-01-30T08:31:10.693Z,5.23
2023-01-30T08:32:10.508Z,5.05
2023-01-30T08:33:10.527Z,4.94
2023-01-30T08:34:10.515Z,4.9
2023-01-30T08:35:10.529Z,4.8
2023-01-30T08:36:10.521Z,4.8
2023-01-30T08:37:10.513Z,4.82
2023-01-30T08:38:10.505Z,4.81
2023-01-30T08:39:10.513Z,4.82
2023-01-30T08:40:10.519Z,4.8
2023-01-30T08:41:10.515Z,4.79
2023-01-30T08:42:10.523Z,4.8
2023-01-30T08:43:10.523Z,4.8
2023-01-30T08:44:10.508Z,4.8
2023-01-30T08:45:10.513Z,4.8
2023-01-30T08:46:10.618Z,4.81
2023-01-30T08:47:10.514Z,4.82
2023-01-30T08:48:10.504Z,4.84
2023-01-30T08:49:10.503Z,4.85
2023-01-30T08:50:10.506Z,4.83
2023-01-30T08:51:10.502Z,4.8
2023-01-30T08:52:10.525Z,4.78
2023-01-30T08:53:10.499Z,4.74
2023-01-30T08:54:10.504Z,4.75
2023-01-30T08:55:10.508Z,4.73
2023-01-30T08:56:10.503Z,4.7
2023-01-30T08:57:10.511Z,4.68
2023-01-30T08:58:10.509Z,4.68
2023-01-30T08:59:10.504Z,4.68
2023-01-30T09:00:10.511Z,4.68
2023-01-30T09:01:10.667Z,4.69
2023-01-30T09:02:10.533Z,4.71
2023-01-30T09:03:10.516Z,4.69
2023-01-30T09:04:10.516Z,4.71
2023-01-30T09:05:10.507Z,4.72
2023-01-30T09:06:10.507Z,4.75
2023-01-30T09:07:10.515Z,4.81
2023-01-30T09:08:10.504Z,4.86
2023-01-30T09:09:10.508Z,4.89
2023-01-30T09:10:10.494Z,4.94
2023-01-30T09:11:10.498Z,4.99
2023-01-30T09:12:10.505Z,5.01
2023-01-30T09:13:10.511Z,5.04
2023-01-30T09:14:10.518Z,5.1
2023-01-30T09:15:10.507Z,5.14
2023-01-30T09:16:10.611Z,5.21
2023-01-30T09:17:10.508Z,5.25
2023-01-30T09:18:10.514Z,5.3
2023-01-30T09:19:10.503Z,5.35
2023-01-30T09:20:10.509Z,5.4
2023-01-30T09:21:10.521Z,5.43
2023-01-30T09:22:10.520Z,5.48
2023-01-30T09:23:10.515Z,5.56
2023-01-30T09:24:10.504Z,5.59
2023-01-30T09:25:10.569Z,5.64
2023-01-30T09:26:10.937Z,5.72
2023-01-30T09:27:11.055Z,5.79
2023-01-30T09:28:11.622Z,5.83
2023-01-30T09:29:10.971Z,5.9
2023-01-30T09:30:10.381Z,5.99
2023-01-30T09:31:10.676Z,6
2023-01-30T09:32:10.936Z,6.03
2023-01-30T09:33:10.512Z,6.03
2023-01-30T09:34:10.550Z,6.03
2023-01-30T09:35:10.519Z,6.01
2023-01-30T09:36:10.503Z,6.02
2023-01-30T09:37:10.539Z,6.03
2023-01-30T09:38:10.519Z,5.99
2023-01-30T09:39:10.533Z,5.99
2023-01-30T09:40:10.508Z,5.97
2023-01-30T09:41:10.500Z,5.95
2023-01-30T09:42:10.522Z,5.98
2023-01-30T09:43:10.509Z,6.04
2023-01-30T09:44:10.522Z,6.09
2023-01-30T09:45:10.528Z,6.17
2023-01-30T09:46:10.572Z,6.22
2023-01-30T09:47:10.497Z,6.22
2023-01-30T09:48:10.511Z,6.23
2023-01-30T09:49:10.521Z,6.23
2023-01-30T09:50:10.526Z,6.18
2023-01-30T09:51:10.525Z,6.18
2023-01-30T09:52:10.512Z,6.15
2023-01-30T09:53:10.529Z,6.17
2023-01-30T09:54:10.550Z,6.15
2023-01-30T09:55:10.542Z,6.16
2023-01-30T09:56:10.560Z,6.16
2023-01-30T09:57:20.796Z,6.18
2023-01-30T09:58:10.510Z,6.19
2023-01-30T09:59:10.515Z,6.21
2023-01-30T10:00:10.538Z,6.22
2023-01-30T10:01:10.520Z,6.22
2023-01-30T10:02:10.505Z,6.2
2023-01-30T10:03:10.552Z,6.21
2023-01-30T10:04:10.556Z,6.22
2023-01-30T10:05:10.592Z,6.23
2023-01-30T10:06:10.505Z,6.22
2023-01-30T10:07:10.516Z,6.2
2023-01-30T10:08:10.514Z,6.18
2023-01-30T10:09:10.522Z,6.22
2023-01-30T10:10:10.599Z,6.23
2023-01-30T10:11:11.823Z,6.21
2023-01-30T10:12:10.547Z,6.19
2023-01-30T10:13:10.502Z,6.16
2023-01-30T10:14:10.589Z,6.18
2023-01-30T10:15:10.873Z,6.19
2023-01-30T10:16:10.631Z,6.15
2023-01-30T10:17:10.521Z,6.1
2023-01-30T10:18:10.551Z,6.13
2023-01-30T10:19:10.802Z,6.15
2023-01-30T10:20:10.704Z,6.11
2023-01-30T10:21:10.506Z,6.13
2023-01-30T10:22:10.517Z,6.12
2023-01-30T10:23:10.508Z,6.14
2023-01-30T10:24:10.531Z,6.15
2023-01-30T10:25:10.557Z,6.18
2023-01-30T10:26:10.632Z,6.22
2023-01-30T10:27:10.526Z,6.23
2023-01-30T10:28:10.502Z,6.22
2023-01-30T10:29:10.557Z,6.2
2023-01-30T10:30:10.537Z,6.18
2023-01-30T10:31:10.670Z,6.27
2023-01-30T10:32:10.534Z,6.39
2023-01-30T10:33:10.510Z,6.58
2023-01-30T10:34:10.536Z,6.78
2023-01-30T10:35:10.512Z,6.97
2023-01-30T10:36:10.506Z,7.1
2023-01-30T10:37:10.543Z,7.17
2023-01-30T10:38:10.580Z,7.14
2023-01-30T10:39:10.509Z,7.08
2023-01-30T10:40:10.580Z,7.05
2023-01-30T10:41:10.509Z,6.98
2023-01-30T10:42:11.905Z,6.9
2023-01-30T10:43:10.505Z,6.81
2023-01-30T10:44:10.512Z,6.78
2023-01-30T10:45:10.523Z,6.73
2023-01-30T10:46:10.602Z,6.62
2023-01-30T10:47:10.766Z,6.6
2023-01-30T10:48:10.515Z,6.57
2023-01-30T10:49:10.505Z,6.54
2023-01-30T10:50:10.560Z,6.52
2023-01-30T10:51:10.776Z,6.51
2023-01-30T10:52:10.529Z,6.49
2023-01-30T10:53:10.515Z,6.47
2023-01-30T10:54:10.701Z,6.46
2023-01-30T10:55:10.504Z,6.47
2023-01-30T10:56:10.637Z,6.48
2023-01-30T10:57:10.538Z,6.46
2023-01-30T10:58:10.664Z,6.41
2023-01-30T10:59:10.509Z,6.39
2023-01-30T11:00:10.739Z,6.38
2023-01-30T11:01:10.515Z,6.35
2023-01-30T11:02:10.760Z,6.37
2023-01-30T11:03:10.573Z,6.35
2023-01-30T11:04:10.794Z,6.33
2023-01-30T11:05:10.567Z,6.32
2023-01-30T11:06:10.833Z,6.32
2023-01-30T11:07:10.758Z,6.32
2023-01-30T11:08:10.892Z,6.32
2023-01-30T11:09:10.668Z,6.32
2023-01-30T11:10:10.499Z,6.34
2023-01-30T11:11:10.698Z,6.35
2023-01-30T11:12:10.504Z,6.38
2023-01-30T11:13:10.531Z,6.39
2023-01-30T11:14:10.510Z,6.41
2023-01-30T11:15:10.510Z,6.44
2023-01-30T11:16:10.559Z,6.44
2023-01-30T11:17:10.510Z,6.48
2023-01-30T11:18:41.252Z,6.47
2023-01-30T11:19:22.067Z,6.48
2023-01-30T11:20:13.971Z,6.5
2023-01-30T11:21:10.510Z,6.48
2023-01-30T11:22:10.515Z,6.46
2023-01-30T11:23:10.510Z,6.49
2023-01-30T11:24:10.529Z,6.46
2023-01-30T11:25:10.507Z,6.47
2023-01-30T11:26:13.542Z,6.49
2023-01-30T11:27:10.587Z,6.47
2023-01-30T11:28:10.513Z,6.48
2023-01-30T11:29:10.506Z,6.46
2023-01-30T11:30:10.523Z,6.46
2023-01-30T11:31:10.538Z,6.46
2023-01-30T11:32:10.536Z,6.46
2023-01-30T11:33:10.512Z,6.46
2023-01-30T11:34:10.522Z,6.48
2023-01-30T11:35:10.519Z,6.48
2023-01-30T11:36:10.522Z,6.48
2023-01-30T11:37:10.508Z,6.49
2023-01-30T11:38:10.525Z,6.47
2023-01-30T11:39:10.513Z,6.48
2023-01-30T11:40:10.527Z,6.47
2023-01-30T11:41:10.510Z,6.48
2023-01-30T11:42:10.520Z,6.46
2023-01-30T11:43:10.525Z,6.45
2023-01-30T11:44:10.519Z,6.48
2023-01-30T11:45:17.506Z,6.49
2023-01-30T11:46:10.564Z,6.47
2023-01-30T11:47:10.530Z,6.45
2023-01-30T11:48:27.910Z,6.43
2023-01-30T11:49:32.619Z,6.41
2023-01-30T11:50:14.965Z,6.39
2023-01-30T11:51:10.523Z,6.4
2023-01-30T11:52:10.522Z,6.41
2023-01-30T11:53:11.517Z,6.4
2023-01-30T11:54:10.516Z,6.4
2023-01-30T11:55:10.507Z,6.35
2023-01-30T11:56:13.506Z,6.35
2023-01-30T11:57:10.500Z,6.35
2023-01-30T11:58:10.507Z,6.37
2023-01-30T11:59:10.510Z,6.33
2023-01-30T12:00:10.522Z,6.35
2023-01-30T12:01:10.521Z,6.36
2023-01-30T12:02:10.625Z,6.35
2023-01-30T12:03:10.578Z,6.34
2023-01-30T12:04:10.534Z,6.35
2023-01-30T12:05:10.501Z,6.37
2023-01-30T12:06:10.511Z,6.4
2023-01-30T12:07:10.509Z,6.43
2023-01-30T12:08:10.515Z,6.44
2023-01-30T12:09:10.511Z,6.48
2023-01-30T12:10:10.508Z,6.49
2023-01-30T12:11:10.508Z,6.51
2023-01-30T12:12:10.507Z,6.55
2023-01-30T12:13:10.523Z,6.58
2023-01-30T12:14:10.518Z,6.56
2023-01-30T12:15:10.524Z,6.57
2023-01-30T12:16:10.603Z,6.58
2023-01-30T12:17:10.498Z,6.58
2023-01-30T12:18:10.518Z,6.62
2023-01-30T12:19:10.508Z,6.65
2023-01-30T12:20:10.507Z,6.8
2023-01-30T12:21:10.519Z,6.92
2023-01-30T12:22:10.503Z,7.18
2023-01-30T12:23:10.509Z,7.48
2023-01-30T12:24:10.506Z,7.84
2023-01-30T12:25:10.501Z,7.89
2023-01-30T12:26:10.549Z,7.87
2023-01-30T12:27:10.511Z,7.75
2023-01-30T12:28:10.515Z,7.58
2023-01-30T12:29:10.515Z,7.46
2023-01-30T12:30:10.594Z,7.39
2023-01-30T12:31:10.514Z,7.3
2023-01-30T12:32:10.506Z,7.23
2023-01-30T12:33:10.665Z,7.09
2023-01-30T12:34:10.527Z,7.05
2023-01-30T12:35:10.627Z,7.09
2023-01-30T12:36:10.505Z,7.06
2023-01-30T12:37:10.769Z,7.08
2023-01-30T12:38:10.502Z,7.1
2023-01-30T12:39:10.522Z,7.14
2023-01-30T12:40:10.503Z,7.21
2023-01-30T12:41:10.509Z,7.35
2023-01-30T12:42:10.512Z,7.38
2023-01-30T12:43:10.515Z,7.44
2023-01-30T12:44:10.500Z,7.44
2023-01-30T12:45:10.508Z,7.45
2023-01-30T12:46:10.534Z,7.49
2023-01-30T12:47:10.507Z,7.58
2023-01-30T12:48:10.530Z,7.73
2023-01-30T12:49:13.535Z,7.88
2023-01-30T12:50:10.668Z,8.1
2023-01-30T12:51:10.506Z,8.16
2023-01-30T12:52:10.505Z,8.2
2023-01-30T12:53:10.505Z,8.31
2023-01-30T12:54:10.502Z,8.34
2023-01-30T12:55:10.501Z,8.32
2023-01-30T12:56:10.509Z,8.24
2023-01-30T12:57:10.510Z,8.11
2023-01-30T12:58:10.509Z,8.01
2023-01-30T12:59:10.509Z,7.89
2023-01-30T13:00:10.507Z,7.81
2023-01-30T13:01:10.552Z,7.84
2023-01-30T13:02:10.516Z,7.89
2023-01-30T13:03:10.542Z,7.86
2023-01-30T13:04:10.515Z,7.85
2023-01-30T13:05:10.507Z,7.84
2023-01-30T13:06:10.501Z,7.83
2023-01-30T13:07:10.510Z,7.75
2023-01-30T13:08:10.505Z,7.69
2023-01-30T13:09:10.526Z,7.62
2023-01-30T13:10:10.497Z,7.53
2023-01-30T13:11:10.508Z,7.44
2023-01-30T13:12:10.498Z,7.43
2023-01-30T13:13:10.510Z,7.44
2023-01-30T13:14:10.509Z,7.4
2023-01-30T13:15:10.516Z,7.38
2023-01-30T13:16:10.574Z,7.33
2023-01-30T13:17:10.497Z,7.26
2023-01-30T13:18:10.510Z,7.2
2023-01-30T13:19:10.510Z,7.13
2023-01-30T13:20:10.533Z,7.02
2023-01-30T13:21:10.511Z,6.98
2023-01-30T13:22:10.501Z,6.89